Time;durP1;ratioP1;P1;durP2;ratioP2;P2;SDS_P1;SDS_P2;PMS_P1;PMS_P2;Temp;Humidity;BMP_temperature;BMP_pressure;BME280_temperature;BME280_humidity;BME280_pressure;Samples;Min_cycle;Max_cycle;Signal;HPM_P1;HPM_P2
2021/05/24 00:00:17;;;;;;;3.63;1.73;;;;;;;;;;1480722;40;20029;-61
2021/05/24 00:01:18;;;;;;;2.80;1.80;;;;;;;;;;1480662;40;20026;-61
2021/05/24 00:02:19;;;;;;;3.50;1.92;;;;;;;;;;1480750;40;20377;-61
2021/05/24 00:03:20;;;;;;;3.75;1.70;;;;;;;;;;1480763;40;20029;-61
2021/05/24 00:04:22;;;;;;;4.13;1.63;;;;;;;;;;1480902;40;20029;-60
2021/05/24 00:05:25;;;;;;;3.55;2.03;;;;;;;;;;1480632;40;20304;-60
2021/05/24 00:06:27;;;;;;;4.43;1.80;;;;;;;;;;1480716;40;20033;-60
2021/05/24 00:07:28;;;;;;;5.25;1.80;;;;;;;;;;1480770;40;20040;-59
2021/05/24 00:08:29;;;;;;;3.75;1.70;;;;;;;;;;1480705;40;20032;-60
2021/05/24 00:09:38;;;;;;;5.30;1.90;;;;;;;;;;1480965;40;20034;-59
2021/05/24 00:10:41;;;;;;;2.50;1.50;;;;;;;;;;1480685;40;20025;-60
2021/05/24 00:11:42;;;;;;;3.05;1.67;;;;;;;;;;1480861;40;20044;-60
2021/05/24 00:12:47;;;;;;;5.57;1.90;;;;;;;;;;1480677;40;20304;-61
2021/05/24 00:13:53;;;;;;;3.10;1.73;;;;;;;;;;1480739;40;20081;-58
2021/05/24 00:14:55;;;;;;;2.85;1.58;;;;;;;;;;1480725;40;20025;-60
2021/05/24 00:15:58;;;;;;;4.32;1.70;;;;;;;;;;1480870;40;20025;-62
2021/05/24 00:16:58;;;;;;;3.85;2.03;;;;;;;;;;1480920;40;20032;-59
2021/05/24 00:18:00;;;;;;;3.40;2.03;;;;;;;;;;1480694;40;20412;-60
2021/05/24 00:19:01;;;;;;;3.92;1.70;;;;;;;;;;1480788;40;20040;-60
2021/05/24 00:20:04;;;;;;;3.28;1.65;;;;;;;;;;1480819;40;20029;-60
2021/05/24 00:21:05;;;;;;;3.78;1.77;;;;;;;;;;1480665;40;20122;-60
2021/05/24 00:22:07;;;;;;;5.00;1.77;;;;;;;;;;1480714;40;20033;-61
2021/05/24 00:23:08;;;;;;;3.45;1.70;;;;;;;;;;1480840;40;20029;-61
2021/05/24 00:24:10;;;;;;;5.10;1.60;;;;;;;;;;1480687;40;20389;-61
2021/05/24 00:25:11;;;;;;;3.22;2.00;;;;;;;;;;1480607;40;20290;-60
2021/05/24 00:26:13;;;;;;;3.33;1.40;;;;;;;;;;1480934;40;20032;-60
2021/05/24 00:27:14;;;;;;;3.55;1.88;;;;;;;;;;1480701;40;20421;-60
2021/05/24 00:28:16;;;;;;;4.25;1.65;;;;;;;;;;1480808;40;20029;-60
2021/05/24 00:29:19;;;;;;;3.50;1.58;;;;;;;;;;1480182;40;20021;-59
2021/05/24 00:30:21;;;;;;;2.53;1.45;;;;;;;;;;1476325;40;20048;-61
2021/05/24 00:31:22;;;;;;;5.28;2.20;;;;;;;;;;1480147;40;20037;-62
2021/05/24 00:32:24;;;;;;;3.50;1.40;;;;;;;;;;1480998;40;20029;-60
2021/05/24 00:33:25;;;;;;;4.18;1.70;;;;;;;;;;1480670;40;20025;-59
2021/05/24 00:34:26;;;;;;;3.95;2.10;;;;;;;;;;1480851;40;20069;-60
2021/05/24 00:35:27;;;;;;;4.13;1.80;;;;;;;;;;1480785;40;20052;-60
2021/05/24 00:36:49;;;;;;;3.65;1.60;;;;;;;;;;1480378;40;20067;-60
2021/05/24 00:38:04;;;;;;;5.03;1.80;;;;;;;;;;1496378;39;20357;-59
2021/05/24 00:39:07;;;;;;;3.55;1.75;;;;;;;;;;1496160;39;20059;-59
2021/05/24 00:40:10;;;;;;;4.20;1.60;;;;;;;;;;1496425;39;20027;-60
2021/05/24 00:41:11;;;;;;;4.18;1.75;;;;;;;;;;1496316;39;20034;-60
2021/05/24 00:42:12;;;;;;;4.88;1.65;;;;;;;;;;1496341;39;20024;-60
2021/05/24 00:43:13;;;;;;;4.32;1.70;;;;;;;;;;1496109;39;20024;-60
2021/05/24 00:44:16;;;;;;;2.90;1.77;;;;;;;;;;1496352;39;20035;-59
2021/05/24 00:45:17;;;;;;;2.78;1.42;;;;;;;;;;1496354;39;20051;-59
2021/05/24 00:46:18;;;;;;;4.43;1.52;;;;;;;;;;1496401;39;20028;-59
2021/05/24 00:47:19;;;;;;;5.63;1.92;;;;;;;;;;1496158;39;20050;-59
2021/05/24 00:48:20;;;;;;;2.92;1.50;;;;;;;;;;1496232;39;20035;-61
2021/05/24 00:49:24;;;;;;;6.00;1.65;;;;;;;;;;1496170;39;20295;-59
2021/05/24 00:50:26;;;;;;;4.72;1.70;;;;;;;;;;1496134;39;20431;-59
2021/05/24 00:51:27;;;;;;;3.15;1.70;;;;;;;;;;1496115;39;20028;-59
2021/05/24 00:52:28;;;;;;;3.40;1.77;;;;;;;;;;1496183;39;20090;-59
2021/05/24 00:53:30;;;;;;;3.65;1.60;;;;;;;;;;1496331;39;20053;-59
2021/05/24 00:54:32;;;;;;;3.65;1.85;;;;;;;;;;1496362;39;20034;-59
2021/05/24 00:55:33;;;;;;;4.43;1.75;;;;;;;;;;1496359;39;20023;-60
2021/05/24 00:56:34;;;;;;;3.88;1.70;;;;;;;;;;1496145;39;20140;-60
2021/05/24 00:57:35;;;;;;;4.85;1.55;;;;;;;;;;1496077;39;20019;-60
2021/05/24 00:58:37;;;;;;;3.90;1.63;;;;;;;;;;1496232;39;20028;-60
2021/05/24 00:59:38;;;;;;;3.15;1.40;;;;;;;;;;1496087;39;20031;-60
2021/05/24 01:00:41;;;;;;;2.92;1.50;;;;;;;;;;1496114;39;20024;-59
2021/05/24 01:01:42;;;;;;;2.53;1.50;;;;;;;;;;1496099;39;20055;-60
2021/05/24 01:02:43;;;;;;;2.90;1.50;;;;;;;;;;1496187;39;20031;-60
2021/05/24 01:03:44;;;;;;;5.63;1.80;;;;;;;;;;1496304;39;20063;-60
2021/05/24 01:04:46;;;;;;;2.97;1.60;;;;;;;;;;1496179;39;20035;-60
2021/05/24 01:05:46;;;;;;;3.95;1.88;;;;;;;;;;1496253;39;20024;-60
2021/05/24 01:06:49;;;;;;;3.55;1.55;;;;;;;;;;1496307;39;20031;-60
2021/05/24 01:07:49;;;;;;;3.33;1.42;;;;;;;;;;1496133;39;20503;-59
2021/05/24 01:08:52;;;;;;;2.10;1.42;;;;;;;;;;1496343;39;20036;-59
2021/05/24 01:09:53;;;;;;;3.50;1.98;;;;;;;;;;1496308;39;20026;-59
2021/05/24 01:10:55;;;;;;;5.22;1.50;;;;;;;;;;1496142;39;20379;-59
2021/05/24 01:11:56;;;;;;;3.58;1.58;;;;;;;;;;1496052;39;20079;-59
2021/05/24 01:12:58;;;;;;;2.55;1.58;;;;;;;;;;1496290;39;20111;-58
2021/05/24 01:14:00;;;;;;;3.03;1.45;;;;;;;;;;1496281;39;20027;-59
2021/05/24 01:15:01;;;;;;;3.15;1.60;;;;;;;;;;1496033;39;20071;-59
2021/05/24 01:16:03;;;;;;;5.20;1.63;;;;;;;;;;1496332;39;20038;-59
2021/05/24 01:17:04;;;;;;;3.90;1.40;;;;;;;;;;1496047;39;20019;-59
2021/05/24 01:18:06;;;;;;;2.97;1.70;;;;;;;;;;1496199;39;20040;-58
2021/05/24 01:19:07;;;;;;;3.25;1.70;;;;;;;;;;1496242;39;20120;-59
2021/05/24 01:20:09;;;;;;;5.07;1.70;;;;;;;;;;1496088;39;20391;-59
2021/05/24 01:21:12;;;;;;;2.90;1.50;;;;;;;;;;1496200;39;20048;-61
2021/05/24 01:22:17;;;;;;;3.42;1.58;;;;;;;;;;1496046;39;20302;-60
2021/05/24 01:23:21;;;;;;;3.15;1.65;;;;;;;;;;1496131;39;20024;-60
2021/05/24 01:24:22;;;;;;;3.67;1.65;;;;;;;;;;1496055;39;20418;-61
2021/05/24 01:25:24;;;;;;;2.50;1.40;;;;;;;;;;1496090;39;20272;-60
2021/05/24 01:26:25;;;;;;;3.13;1.50;;;;;;;;;;1496261;39;20085;-60
2021/05/24 01:27:26;;;;;;;2.72;1.35;;;;;;;;;;1496268;39;20046;-59
2021/05/24 01:28:27;;;;;;;4.28;1.60;;;;;;;;;;1496237;39;20028;-60
2021/05/24 01:29:32;;;;;;;3.50;1.48;;;;;;;;;;1496037;39;20302;-60
2021/05/24 01:30:33;;;;;;;3.05;1.73;;;;;;;;;;1496010;39;20059;-60
2021/05/24 01:31:35;;;;;;;3.63;1.38;;;;;;;;;;1496052;39;20028;-59
2021/05/24 01:32:36;;;;;;;4.45;1.90;;;;;;;;;;1496204;39;20112;-59
2021/05/24 01:33:37;;;;;;;5.90;1.77;;;;;;;;;;1496219;39;20023;-59
2021/05/24 01:34:38;;;;;;;3.95;1.38;;;;;;;;;;1496053;39;20028;-60
2021/05/24 01:35:41;;;;;;;4.82;1.60;;;;;;;;;;1496103;39;20109;-60
2021/05/24 01:36:42;;;;;;;2.60;1.50;;;;;;;;;;1496205;39;20023;-60
2021/05/24 01:37:44;;;;;;;2.50;1.45;;;;;;;;;;1496165;39;20047;-59
2021/05/24 01:38:45;;;;;;;3.58;1.67;;;;;;;;;;1496010;39;20027;-60
2021/05/24 01:39:46;;;;;;;3.10;1.45;;;;;;;;;;1496210;39;20024;-60
2021/05/24 01:40:47;;;;;;;3.33;1.60;;;;;;;;;;1496031;39;20036;-60
2021/05/24 01:41:48;;;;;;;4.35;1.67;;;;;;;;;;1496116;39;20120;-60
2021/05/24 01:42:53;;;;;;;3.53;1.52;;;;;;;;;;1496078;39;20053;-59
2021/05/24 01:43:54;;;;;;;4.82;1.75;;;;;;;;;;1496122;39;20039;-59
2021/05/24 01:44:55;;;;;;;2.47;1.73;;;;;;;;;;1496028;39;20315;-60
2021/05/24 01:45:56;;;;;;;3.30;1.70;;;;;;;;;;1496272;39;20028;-60
2021/05/24 01:46:58;;;;;;;2.60;1.30;;;;;;;;;;1495984;39;20070;-60
2021/05/24 01:47:59;;;;;;;3.08;1.60;;;;;;;;;;1496221;39;20028;-59
2021/05/24 01:49:00;;;;;;;2.50;1.50;;;;;;;;;;1494540;39;20028;-58
2021/05/24 01:50:01;;;;;;;3.28;1.33;;;;;;;;;;1493354;39;20032;-59
2021/05/24 01:51:05;;;;;;;6.80;1.60;;;;;;;;;;1493378;39;20032;-60
2021/05/24 01:52:08;;;;;;;2.50;1.38;;;;;;;;;;1493353;39;20110;-60
2021/05/24 01:53:08;;;;;;;2.92;1.50;;;;;;;;;;1493170;39;20026;-60
2021/05/24 01:54:10;;;;;;;3.65;1.60;;;;;;;;;;1493224;39;20034;-59
2021/05/24 01:55:11;;;;;;;3.22;1.60;;;;;;;;;;1493341;39;20109;-59
2021/05/24 01:56:12;;;;;;;2.90;1.60;;;;;;;;;;1493398;39;20032;-59
2021/05/24 01:57:14;;;;;;;8.60;1.70;;;;;;;;;;1493320;39;20024;-60
2021/05/24 01:58:17;;;;;;;6.50;1.58;;;;;;;;;;1493156;39;20027;-59
2021/05/24 01:59:17;;;;;;;4.53;1.40;;;;;;;;;;1493175;39;20050;-58
2021/05/24 02:00:21;;;;;;;2.60;1.63;;;;;;;;;;1493441;39;20383;-60
2021/05/24 02:01:22;;;;;;;5.78;1.60;;;;;;;;;;1493168;39;20032;-60
2021/05/24 02:02:23;;;;;;;5.18;1.80;;;;;;;;;;1493315;39;20067;-60
2021/05/24 02:03:24;;;;;;;3.08;1.50;;;;;;;;;;1493307;39;20051;-59
2021/05/24 02:04:26;;;;;;;4.57;1.60;;;;;;;;;;1493288;39;20054;-59
2021/05/24 02:05:28;;;;;;;2.42;1.45;;;;;;;;;;1493241;39;20030;-60
2021/05/24 02:06:30;;;;;;;4.88;1.60;;;;;;;;;;1493435;39;20040;-60
2021/05/24 02:07:31;;;;;;;2.95;1.50;;;;;;;;;;1493230;39;20028;-59
2021/05/24 02:08:34;;;;;;;2.75;1.70;;;;;;;;;;1493148;39;20280;-60
2021/05/24 02:09:35;;;;;;;2.72;1.50;;;;;;;;;;1493128;39;20054;-60
2021/05/24 02:10:38;;;;;;;3.45;1.50;;;;;;;;;;1493394;39;20034;-59
2021/05/24 02:11:39;;;;;;;4.53;1.60;;;;;;;;;;1493039;39;20447;-59
2021/05/24 02:12:41;;;;;;;3.97;1.52;;;;;;;;;;1493152;39;20028;-60
2021/05/24 02:13:43;;;;;;;3.30;1.50;;;;;;;;;;1493339;39;20035;-59
2021/05/24 02:14:44;;;;;;;2.80;1.60;;;;;;;;;;1493333;39;20039;-59
2021/05/24 02:15:45;;;;;;;4.13;1.90;;;;;;;;;;1493158;39;20276;-59
2021/05/24 02:16:49;;;;;;;3.13;1.42;;;;;;;;;;1493146;39;20035;-60
2021/05/24 02:17:50;;;;;;;2.20;1.40;;;;;;;;;;1493248;39;20071;-60
2021/05/24 02:18:51;;;;;;;5.82;1.60;;;;;;;;;;1493160;39;20272;-59
2021/05/24 02:19:53;;;;;;;3.58;1.67;;;;;;;;;;1493260;39;20039;-58
2021/05/24 02:20:55;;;;;;;2.92;1.70;;;;;;;;;;1493106;39;20402;-59
2021/05/24 02:21:55;;;;;;;2.72;1.33;;;;;;;;;;1493288;39;20039;-60
2021/05/24 02:23:01;;;;;;;4.38;1.48;;;;;;;;;;1493335;39;20291;-60
2021/05/24 02:24:02;;;;;;;4.20;1.70;;;;;;;;;;1493125;39;20298;-59
2021/05/24 02:25:05;;;;;;;4.10;1.70;;;;;;;;;;1493245;39;20117;-59
2021/05/24 02:26:06;;;;;;;3.13;1.30;;;;;;;;;;1493072;39;20420;-60
2021/05/24 02:27:07;;;;;;;3.70;1.60;;;;;;;;;;1493082;39;20028;-60
2021/05/24 02:28:08;;;;;;;3.30;1.70;;;;;;;;;;1493344;39;20112;-60
2021/05/24 02:29:10;;;;;;;3.85;1.80;;;;;;;;;;1493255;39;20403;-59
2021/05/24 02:30:14;;;;;;;2.60;1.42;;;;;;;;;;1493180;39;20040;-58
2021/05/24 02:31:15;;;;;;;4.18;1.50;;;;;;;;;;1493056;39;20295;-59
2021/05/24 02:32:16;;;;;;;3.50;1.70;;;;;;;;;;1493136;39;20418;-59
2021/05/24 02:33:17;;;;;;;2.40;1.63;;;;;;;;;;1493291;39;20031;-59
2021/05/24 02:34:18;;;;;;;2.42;1.40;;;;;;;;;;1493344;39;20024;-59
2021/05/24 02:35:21;;;;;;;2.53;1.90;;;;;;;;;;1493113;39;20402;-58
2021/05/24 02:36:24;;;;;;;3.95;1.65;;;;;;;;;;1493238;39;20035;-61
2021/05/24 02:37:25;;;;;;;2.97;1.63;;;;;;;;;;1493097;39;20124;-59
2021/05/24 02:38:27;;;;;;;3.15;1.80;;;;;;;;;;1493269;39;20043;-60
2021/05/24 02:39:28;;;;;;;2.60;1.58;;;;;;;;;;1493381;39;20028;-60
2021/05/24 02:40:29;;;;;;;5.40;1.70;;;;;;;;;;1493060;39;20295;-59
2021/05/24 02:41:31;;;;;;;2.33;1.55;;;;;;;;;;1493273;39;20028;-59
2021/05/24 02:42:32;;;;;;;5.13;1.65;;;;;;;;;;1492986;39;20375;-60
2021/05/24 02:43:33;;;;;;;2.97;1.45;;;;;;;;;;1493246;39;20112;-59
2021/05/24 02:44:34;;;;;;;3.80;1.50;;;;;;;;;;1493255;39;20108;-59
2021/05/24 02:45:35;;;;;;;3.22;1.50;;;;;;;;;;1493085;39;20360;-59
2021/05/24 02:46:37;;;;;;;2.03;1.30;;;;;;;;;;1493003;39;20028;-59
2021/05/24 02:47:39;;;;;;;7.03;1.90;;;;;;;;;;1492999;39;20032;-59
2021/05/24 02:48:40;;;;;;;3.33;1.60;;;;;;;;;;1493002;39;20027;-59
2021/05/24 02:49:44;;;;;;;4.57;1.73;;;;;;;;;;1493220;39;20040;-59
2021/05/24 02:50:46;;;;;;;4.15;1.73;;;;;;;;;;1493198;39;20108;-58
2021/05/24 02:51:47;;;;;;;2.58;1.33;;;;;;;;;;1493024;39;20387;-59
2021/05/24 02:52:48;;;;;;;3.47;1.67;;;;;;;;;;1493047;39;20116;-59
2021/05/24 02:53:50;;;;;;;3.05;1.50;;;;;;;;;;1493232;39;20116;-60
2021/05/24 02:54:51;;;;;;;3.55;1.60;;;;;;;;;;1493176;39;20031;-59
2021/05/24 02:55:52;;;;;;;4.30;1.80;;;;;;;;;;1493270;39;20028;-61
2021/05/24 02:56:53;;;;;;;4.07;1.55;;;;;;;;;;1493190;39;20032;-62
2021/05/24 02:57:54;;;;;;;5.10;1.58;;;;;;;;;;1492982;39;20030;-62
2021/05/24 02:58:55;;;;;;;2.83;1.40;;;;;;;;;;1493279;39;20034;-62
2021/05/24 02:59:56;;;;;;;2.75;1.58;;;;;;;;;;1493061;39;20036;-62
2021/05/24 03:00:57;;;;;;;2.83;1.80;;;;;;;;;;1492582;39;20032;-62
2021/05/24 03:02:01;;;;;;;4.20;1.50;;;;;;;;;;1492974;39;20057;-62
2021/05/24 03:03:02;;;;;;;3.38;1.55;;;;;;;;;;1493226;39;20130;-62
2021/05/24 03:04:04;;;;;;;3.90;1.70;;;;;;;;;;1493008;39;20028;-62
2021/05/24 03:05:06;;;;;;;2.40;1.27;;;;;;;;;;1493186;39;20031;-62
2021/05/24 03:06:07;;;;;;;3.17;1.50;;;;;;;;;;1493012;39;20047;-62
2021/05/24 03:07:09;;;;;;;3.28;1.50;;;;;;;;;;1493001;39;20039;-62
2021/05/24 03:08:10;;;;;;;2.40;1.52;;;;;;;;;;1492999;39;20035;-62
2021/05/24 03:09:12;;;;;;;2.85;1.65;;;;;;;;;;1492967;39;20030;-63
2021/05/24 03:10:15;;;;;;;2.90;1.50;;;;;;;;;;1493239;39;20032;-62
2021/05/24 03:11:18;;;;;;;3.75;1.73;;;;;;;;;;1492943;39;20373;-62
2021/05/24 03:12:19;;;;;;;3.42;1.70;;;;;;;;;;1493036;39;20054;-62
2021/05/24 03:13:23;;;;;;;3.58;1.50;;;;;;;;;;1493208;39;20039;-62
2021/05/24 03:14:24;;;;;;;2.88;1.63;;;;;;;;;;1492980;39;20043;-62
2021/05/24 03:15:26;;;;;;;3.35;1.70;;;;;;;;;;1492977;39;20064;-62
2021/05/24 03:16:27;;;;;;;1.95;1.30;;;;;;;;;;1492985;39;20032;-62
2021/05/24 03:17:28;;;;;;;2.25;1.35;;;;;;;;;;1493092;39;20037;-62
2021/05/24 03:18:29;;;;;;;2.63;1.55;;;;;;;;;;1493020;39;20399;-62
2021/05/24 03:19:30;;;;;;;3.33;1.42;;;;;;;;;;1492990;39;20023;-62
2021/05/24 03:20:31;;;;;;;3.97;1.33;;;;;;;;;;1493139;39;20035;-62
2021/05/24 03:21:32;;;;;;;3.95;1.88;;;;;;;;;;1493050;39;20039;-62
2021/05/24 03:22:33;;;;;;;3.95;1.52;;;;;;;;;;1493131;39;20036;-63
2021/05/24 03:23:35;;;;;;;2.25;1.50;;;;;;;;;;1493127;39;20040;-62
2021/05/24 03:24:38;;;;;;;2.47;1.35;;;;;;;;;;1493064;39;20272;-62
2021/05/24 03:25:39;;;;;;;3.75;1.40;;;;;;;;;;1493189;39;20035;-62
2021/05/24 03:26:40;;;;;;;2.70;1.50;;;;;;;;;;1493144;39;20032;-62
2021/05/24 03:27:42;;;;;;;5.00;1.40;;;;;;;;;;1493076;39;20024;-62
2021/05/24 03:28:44;;;;;;;2.83;1.50;;;;;;;;;;1492938;39;20024;-62
2021/05/24 03:29:46;;;;;;;3.20;1.70;;;;;;;;;;1493128;39;20104;-62
2021/05/24 03:30:47;;;;;;;2.92;1.50;;;;;;;;;;1492954;39;20067;-62
2021/05/24 03:31:48;;;;;;;2.67;1.48;;;;;;;;;;1493247;39;20042;-62
2021/05/24 03:32:49;;;;;;;2.67;1.65;;;;;;;;;;1492991;39;20024;-62
2021/05/24 03:33:51;;;;;;;3.22;1.30;;;;;;;;;;1492938;39;20484;-62
2021/05/24 03:34:52;;;;;;;6.13;1.80;;;;;;;;;;1492943;39;20092;-62
2021/05/24 03:35:54;;;;;;;2.90;1.33;;;;;;;;;;1492903;39;20028;-62
2021/05/24 03:36:55;;;;;;;2.90;1.25;;;;;;;;;;1493082;39;20031;-62
2021/05/24 03:37:56;;;;;;;3.63;1.38;;;;;;;;;;1492880;39;20039;-62
2021/05/24 03:38:57;;;;;;;4.18;1.80;;;;;;;;;;1493053;39;20034;-62
2021/05/24 03:39:59;;;;;;;2.67;1.30;;;;;;;;;;1493123;39;20028;-62
2021/05/24 03:41:00;;;;;;;3.58;1.40;;;;;;;;;;1492893;39;20142;-62
2021/05/24 03:42:01;;;;;;;2.38;1.30;;;;;;;;;;1493011;39;20035;-62
2021/05/24 03:43:03;;;;;;;2.75;1.45;;;;;;;;;;1493134;39;20032;-63
2021/05/24 03:44:05;;;;;;;2.92;1.30;;;;;;;;;;1492893;39;20406;-62
2021/05/24 03:45:09;;;;;;;2.08;1.30;;;;;;;;;;1493111;39;20031;-62
2021/05/24 03:46:09;;;;;;;2.20;1.40;;;;;;;;;;1493046;39;20049;-62
2021/05/24 03:47:11;;;;;;;2.75;1.45;;;;;;;;;;1492972;39;20081;-62
2021/05/24 03:48:12;;;;;;;3.63;1.80;;;;;;;;;;1493112;39;20027;-63
2021/05/24 03:49:13;;;;;;;2.83;1.40;;;;;;;;;;1492974;39;20294;-62
2021/05/24 03:50:14;;;;;;;2.83;1.35;;;;;;;;;;1492941;39;20303;-62
2021/05/24 03:51:15;;;;;;;4.22;1.45;;;;;;;;;;1492939;39;20390;-62
2021/05/24 03:52:17;;;;;;;2.75;1.65;;;;;;;;;;1493116;39;20024;-63
2021/05/24 03:53:19;;;;;;;4.45;1.33;;;;;;;;;;1493051;39;20034;-62
2021/05/24 03:54:20;;;;;;;2.97;1.40;;;;;;;;;;1492891;39;20034;-63
2021/05/24 03:55:22;;;;;;;2.47;1.60;;;;;;;;;;1492867;39;20369;-62
2021/05/24 03:56:23;;;;;;;2.78;1.60;;;;;;;;;;1493027;39;20032;-62
2021/05/24 03:57:24;;;;;;;2.92;1.20;;;;;;;;;;1492840;39;20028;-62
2021/05/24 03:58:25;;;;;;;3.13;1.50;;;;;;;;;;1493007;39;20035;-62
2021/05/24 03:59:26;;;;;;;2.45;1.30;;;;;;;;;;1492828;39;20032;-62
2021/05/24 04:00:27;;;;;;;2.58;1.50;;;;;;;;;;1493044;39;20034;-62
2021/05/24 04:01:29;;;;;;;9.63;2.03;;;;;;;;;;1492999;39;20117;-62
2021/05/24 04:02:30;;;;;;;3.08;1.48;;;;;;;;;;1492337;39;20028;-62
2021/05/24 04:03:31;;;;;;;3.38;1.40;;;;;;;;;;1492589;39;20028;-62
2021/05/24 04:04:32;;;;;;;4.70;1.48;;;;;;;;;;1492998;39;20019;-62
2021/05/24 04:05:36;;;;;;;2.42;1.50;;;;;;;;;;1492846;39;20032;-62
2021/05/24 04:06:39;;;;;;;4.20;1.48;;;;;;;;;;1492848;39;20032;-62
2021/05/24 04:07:43;;;;;;;2.88;1.30;;;;;;;;;;1492894;39;20027;-62
2021/05/24 04:08:46;;;;;;;3.25;1.70;;;;;;;;;;1492842;39;20034;-62
2021/05/24 04:09:47;;;;;;;2.38;1.38;;;;;;;;;;1493108;39;20027;-62
2021/05/24 04:10:53;;;;;;;3.72;1.38;;;;;;;;;;1492795;39;20028;-62
2021/05/24 04:11:54;;;;;;;1.98;1.10;;;;;;;;;;1492646;39;20039;-62
2021/05/24 04:12:55;;;;;;;4.70;1.50;;;;;;;;;;1493001;39;20031;-62
2021/05/24 04:13:56;;;;;;;3.42;1.70;;;;;;;;;;1493068;39;20399;-62
2021/05/24 04:14:57;;;;;;;3.55;1.60;;;;;;;;;;1492985;39;20024;-62
2021/05/24 04:15:59;;;;;;;3.38;1.50;;;;;;;;;;1492825;39;20060;-62
2021/05/24 04:17:00;;;;;;;3.25;1.67;;;;;;;;;;1492884;39;20035;-62
2021/05/24 04:18:02;;;;;;;2.08;1.40;;;;;;;;;;1492790;39;20027;-62
2021/05/24 04:19:06;;;;;;;2.42;1.45;;;;;;;;;;1492998;39;20024;-63
2021/05/24 04:20:11;;;;;;;4.45;1.38;;;;;;;;;;1492870;39;20032;-63
2021/05/24 04:21:12;;;;;;;2.38;1.45;;;;;;;;;;1492747;39;20038;-63
2021/05/24 04:22:14;;;;;;;3.97;1.50;;;;;;;;;;1492972;39;20395;-62
2021/05/24 04:23:15;;;;;;;3.13;1.25;;;;;;;;;;1493002;39;20027;-62
2021/05/24 04:24:17;;;;;;;3.03;1.30;;;;;;;;;;1493001;39;20112;-62
2021/05/24 04:25:18;;;;;;;3.97;1.73;;;;;;;;;;1492801;39;20407;-63
2021/05/24 04:26:20;;;;;;;2.72;1.60;;;;;;;;;;1492875;39;20028;-62
2021/05/24 04:27:21;;;;;;;3.42;1.50;;;;;;;;;;1492824;39;20272;-62
2021/05/24 04:28:22;;;;;;;2.63;1.45;;;;;;;;;;1492757;39;20105;-62
2021/05/24 04:29:23;;;;;;;3.85;1.75;;;;;;;;;;1492765;39;20028;-62
2021/05/24 04:30:26;;;;;;;2.97;1.50;;;;;;;;;;1492966;39;20039;-62
2021/05/24 04:31:26;;;;;;;2.42;1.50;;;;;;;;;;1492797;39;20032;-63
2021/05/24 04:32:28;;;;;;;3.28;1.50;;;;;;;;;;1492802;39;20034;-63
2021/05/24 04:33:29;;;;;;;2.83;1.40;;;;;;;;;;1493004;39;20031;-62
2021/05/24 04:34:30;;;;;;;2.90;1.75;;;;;;;;;;1492784;39;20047;-62
2021/05/24 04:35:31;;;;;;;2.67;1.30;;;;;;;;;;1492924;39;20109;-62
2021/05/24 04:36:32;;;;;;;3.67;1.40;;;;;;;;;;1492853;39;20371;-62
2021/05/24 04:37:34;;;;;;;2.42;1.42;;;;;;;;;;1492798;39;20043;-63
2021/05/24 04:38:36;;;;;;;4.68;1.30;;;;;;;;;;1492825;39;20036;-62
2021/05/24 04:39:37;;;;;;;1.88;1.20;;;;;;;;;;1492962;39;20024;-62
2021/05/24 04:40:38;;;;;;;2.47;1.30;;;;;;;;;;1492954;39;20024;-63
2021/05/24 04:41:40;;;;;;;2.78;1.20;;;;;;;;;;1492212;39;20077;-62
2021/05/24 04:42:41;;;;;;;2.90;1.27;;;;;;;;;;1492239;39;20032;-62
2021/05/24 04:43:42;;;;;;;2.85;1.25;;;;;;;;;;1492988;39;20032;-62
2021/05/24 04:44:43;;;;;;;2.83;1.40;;;;;;;;;;1492738;39;20024;-62
2021/05/24 04:45:44;;;;;;;2.58;1.20;;;;;;;;;;1492938;39;20040;-62
2021/05/24 04:46:45;;;;;;;3.25;1.45;;;;;;;;;;1492946;39;20044;-62
2021/05/24 04:47:46;;;;;;;3.25;1.45;;;;;;;;;;1492868;39;20387;-62
2021/05/24 04:48:47;;;;;;;1.98;1.17;;;;;;;;;;1492897;39;20052;-62
2021/05/24 04:49:49;;;;;;;3.65;1.35;;;;;;;;;;1492724;39;20024;-62
2021/05/24 04:50:51;;;;;;;3.95;1.30;;;;;;;;;;1492916;39;20024;-63
2021/05/24 04:51:51;;;;;;;2.88;1.30;;;;;;;;;;1492670;39;20036;-62
2021/05/24 04:52:53;;;;;;;2.35;1.30;;;;;;;;;;1492890;39;20031;-63
2021/05/24 04:53:54;;;;;;;3.15;1.33;;;;;;;;;;1492710;39;20032;-62
2021/05/24 04:54:55;;;;;;;2.95;1.50;;;;;;;;;;1492794;39;20028;-62
2021/05/24 04:55:56;;;;;;;2.00;1.20;;;;;;;;;;1492709;39;20040;-63
2021/05/24 04:57:00;;;;;;;2.50;1.55;;;;;;;;;;1492681;39;20411;-63
2021/05/24 04:58:02;;;;;;;2.50;1.35;;;;;;;;;;1492823;39;20039;-62
2021/05/24 04:59:04;;;;;;;4.75;1.40;;;;;;;;;;1492678;39;20130;-62
2021/05/24 05:00:08;;;;;;;3.00;1.45;;;;;;;;;;1492852;39;20035;-63
2021/05/24 05:01:10;;;;;;;2.78;1.17;;;;;;;;;;1492873;39;20075;-62
2021/05/24 05:02:10;;;;;;;2.30;1.27;;;;;;;;;;1492661;39;20032;-63
2021/05/24 05:03:12;;;;;;;5.45;1.45;;;;;;;;;;1492757;39;20023;-63
2021/05/24 05:04:13;;;;;;;2.97;1.30;;;;;;;;;;1492670;39;20268;-63
2021/05/24 05:05:14;;;;;;;2.08;1.30;;;;;;;;;;1492127;39;20035;-62
2021/05/24 05:06:15;;;;;;;2.30;1.45;;;;;;;;;;1492323;39;20036;-62
2021/05/24 05:07:16;;;;;;;2.38;1.30;;;;;;;;;;1492819;39;20028;-63
2021/05/24 05:08:17;;;;;;;2.10;1.20;;;;;;;;;;1492672;39;20116;-62
2021/05/24 05:09:19;;;;;;;2.90;1.30;;;;;;;;;;1492816;39;20112;-62
2021/05/24 05:10:19;;;;;;;2.53;1.20;;;;;;;;;;1492839;39;20024;-62
2021/05/24 05:11:21;;;;;;;5.05;1.30;;;;;;;;;;1492733;39;20031;-62
2021/05/24 05:12:22;;;;;;;2.72;1.30;;;;;;;;;;1492784;39;20035;-62
2021/05/24 05:13:24;;;;;;;3.17;1.30;;;;;;;;;;1492633;39;20072;-62
2021/05/24 05:14:25;;;;;;;2.90;1.50;;;;;;;;;;1492800;39;20023;-62
2021/05/24 05:15:27;;;;;;;2.80;1.42;;;;;;;;;;1492644;39;20089;-63
2021/05/24 05:16:27;;;;;;;3.40;1.50;;;;;;;;;;1492608;39;20060;-62
2021/05/24 05:17:29;;;;;;;2.60;1.33;;;;;;;;;;1492739;39;20089;-63
2021/05/24 05:18:30;;;;;;;2.45;1.27;;;;;;;;;;1492825;39;20039;-63
2021/05/24 05:19:31;;;;;;;4.85;1.70;;;;;;;;;;1492766;39;20043;-62
2021/05/24 05:20:32;;;;;;;3.75;1.48;;;;;;;;;;1492800;39;20036;-63
2021/05/24 05:21:34;;;;;;;3.83;1.48;;;;;;;;;;1492541;39;20032;-63
2021/05/24 05:22:36;;;;;;;4.55;1.60;;;;;;;;;;1492809;39;20032;-62
2021/05/24 05:23:37;;;;;;;2.90;1.50;;;;;;;;;;1492776;39;20035;-62
2021/05/24 05:24:38;;;;;;;2.40;1.63;;;;;;;;;;1493265;39;20032;-63
2021/05/24 05:25:39;;;;;;;3.88;1.30;;;;;;;;;;1493258;39;20020;-63
2021/05/24 05:26:40;;;;;;;2.20;1.30;;;;;;;;;;1493236;39;20376;-63
2021/05/24 05:27:43;;;;;;;2.58;1.42;;;;;;;;;;1493445;39;20112;-63
2021/05/24 05:28:43;;;;;;;4.32;1.50;;;;;;;;;;1493206;39;20024;-63
2021/05/24 05:29:45;;;;;;;2.67;1.35;;;;;;;;;;1493346;39;20380;-62
2021/05/24 05:30:46;;;;;;;2.13;1.42;;;;;;;;;;1493254;39;20027;-63
2021/05/24 05:31:47;;;;;;;2.50;1.52;;;;;;;;;;1493385;39;20071;-62
2021/05/24 05:32:48;;;;;;;4.05;1.42;;;;;;;;;;1493441;39;20028;-63
2021/05/24 05:33:50;;;;;;;2.10;1.40;;;;;;;;;;1493247;39;20534;-62
2021/05/24 05:34:51;;;;;;;2.17;1.33;;;;;;;;;;1493247;39;20306;-63
2021/05/24 05:35:55;;;;;;;3.53;1.50;;;;;;;;;;1493348;39;20020;-62
2021/05/24 05:36:56;;;;;;;2.30;1.50;;;;;;;;;;1493405;39;20043;-62
2021/05/24 05:37:57;;;;;;;2.03;1.33;;;;;;;;;;1493390;39;20075;-62
2021/05/24 05:38:58;;;;;;;3.17;1.30;;;;;;;;;;1493252;39;20027;-62
2021/05/24 05:40:00;;;;;;;2.17;1.40;;;;;;;;;;1493207;39;20039;-62
2021/05/24 05:41:03;;;;;;;5.32;1.33;;;;;;;;;;1493298;39;20028;-62
2021/05/24 05:42:05;;;;;;;2.47;1.48;;;;;;;;;;1493205;39;20376;-63
2021/05/24 05:43:06;;;;;;;2.22;1.30;;;;;;;;;;1493341;39;20024;-62
2021/05/24 05:44:08;;;;;;;2.92;1.50;;;;;;;;;;1493503;39;20024;-63
2021/05/24 05:45:11;;;;;;;2.47;1.48;;;;;;;;;;1493400;39;20040;-63
2021/05/24 05:46:12;;;;;;;2.80;1.50;;;;;;;;;;1493515;39;20051;-63
2021/05/24 05:47:13;;;;;;;3.35;1.90;;;;;;;;;;1493342;39;20028;-63
2021/05/24 05:48:14;;;;;;;2.40;1.60;;;;;;;;;;1493374;39;20368;-63
2021/05/24 05:49:15;;;;;;;4.43;1.70;;;;;;;;;;1493134;39;20035;-63
2021/05/24 05:50:17;;;;;;;3.03;1.70;;;;;;;;;;1493265;39;20299;-63
2021/05/24 05:51:17;;;;;;;2.60;1.60;;;;;;;;;;1493249;39;20505;-63
2021/05/24 05:52:19;;;;;;;4.20;1.75;;;;;;;;;;1493127;39;20032;-63
2021/05/24 05:53:20;;;;;;;2.85;1.70;;;;;;;;;;1493187;39;20054;-63
2021/05/24 05:54:21;;;;;;;3.10;1.45;;;;;;;;;;1493199;39;20035;-63
2021/05/24 05:55:22;;;;;;;2.58;1.48;;;;;;;;;;1493450;39;20032;-63
2021/05/24 05:56:23;;;;;;;3.40;1.58;;;;;;;;;;1493249;39;20364;-63
2021/05/24 05:57:24;;;;;;;2.58;1.45;;;;;;;;;;1493297;39;20028;-63
2021/05/24 05:58:26;;;;;;;3.78;1.60;;;;;;;;;;1493074;39;20024;-62
2021/05/24 05:59:27;;;;;;;4.53;1.40;;;;;;;;;;1493357;39;20028;-63
2021/05/24 06:00:29;;;;;;;2.55;1.30;;;;;;;;;;1493141;39;20471;-63
2021/05/24 06:01:29;;;;;;;3.15;1.50;;;;;;;;;;1493269;39;20035;-63
2021/05/24 06:02:31;;;;;;;4.07;1.60;;;;;;;;;;1493161;39;20405;-63
2021/05/24 06:03:32;;;;;;;2.80;1.45;;;;;;;;;;1493138;39;20032;-63
2021/05/24 06:04:34;;;;;;;2.67;1.55;;;;;;;;;;1493192;39;20312;-63
2021/05/24 06:05:36;;;;;;;2.42;1.50;;;;;;;;;;1493205;39;20395;-63
2021/05/24 06:06:37;;;;;;;2.08;1.40;;;;;;;;;;1493303;39;20032;-63
2021/05/24 06:07:38;;;;;;;2.30;1.30;;;;;;;;;;1493434;39;20035;-63
2021/05/24 06:08:40;;;;;;;4.32;1.40;;;;;;;;;;1493093;39;20277;-63
2021/05/24 06:09:41;;;;;;;2.80;1.30;;;;;;;;;;1493300;39;20046;-63